createdAt,value
2022-10-14T00:01:33.009Z,100.00
2022-10-14T00:04:00.351Z,100.00
2022-10-14T00:06:30.493Z,100.00
2022-10-14T00:09:00.407Z,100.00
2022-10-14T00:11:31.395Z,100.00
2022-10-14T00:14:02.201Z,100.00
2022-10-14T00:16:33.729Z,100.00
2022-10-14T00:19:01.440Z,100.00
2022-10-14T00:21:28.998Z,100.00
2022-10-14T00:23:56.886Z,100.00
2022-10-14T00:26:26.119Z,100.00
2022-10-14T00:28:53.446Z,100.00
2022-10-14T00:31:20.865Z,100.00
2022-10-14T00:33:48.225Z,100.00
2022-10-14T00:36:17.180Z,100.00
2022-10-14T00:38:45.479Z,100.00
2022-10-14T00:41:16.972Z,100.00
2022-10-14T00:44:07.894Z,100.00
2022-10-14T00:46:36.928Z,100.00
2022-10-14T00:49:15.863Z,100.00
2022-10-14T00:51:47.899Z,100.00
2022-10-14T00:54:17.946Z,100.00
2022-10-14T00:56:49.320Z,100.00
2022-10-14T00:59:16.555Z,100.00
2022-10-14T01:01:43.248Z,100.00
2022-10-14T01:04:09.834Z,100.00
2022-10-14T01:06:44.217Z,100.00
2022-10-14T01:09:26.023Z,100.00
2022-10-14T01:12:28.044Z,100.00
2022-10-14T01:15:11.520Z,100.00
2022-10-14T01:18:00.226Z,100.00
2022-10-14T01:20:58.393Z,100.00
2022-10-14T01:23:38.311Z,100.00
2022-10-14T01:26:23.366Z,100.00
2022-10-14T01:29:28.060Z,100.00
2022-10-14T01:32:03.993Z,100.00
2022-10-14T01:34:37.830Z,100.00
2022-10-14T01:37:12.582Z,100.00
2022-10-14T01:39:44.779Z,100.00
2022-10-14T01:42:16.340Z,100.00
2022-10-14T01:44:47.495Z,100.00
2022-10-14T01:47:18.516Z,100.00
2022-10-14T01:49:52.980Z,100.00
2022-10-14T01:52:27.476Z,100.00
2022-10-14T01:54:59.850Z,100.00
2022-10-14T01:57:29.980Z,100.00
2022-10-14T01:59:58.426Z,100.00
2022-10-14T02:02:25.657Z,100.00
2022-10-14T02:04:52.628Z,100.00
2022-10-14T02:07:33.195Z,100.00
2022-10-14T02:10:14.600Z,100.00
2022-10-14T02:12:57.656Z,100.00
2022-10-14T02:15:34.548Z,100.00
2022-10-14T02:18:17.807Z,100.00
2022-10-14T02:20:54.636Z,100.00
2022-10-14T02:23:26.468Z,100.00
2022-10-14T02:25:54.938Z,100.00
2022-10-14T02:28:25.524Z,100.00
2022-10-14T02:30:57.828Z,100.00
2022-10-14T02:33:31.088Z,100.00
2022-10-14T02:35:58.021Z,100.00
2022-10-14T02:38:25.895Z,100.00
2022-10-14T02:40:53.015Z,100.00
2022-10-14T02:43:19.976Z,100.00
2022-10-14T02:45:46.605Z,100.00
2022-10-14T02:48:13.527Z,100.00
2022-10-14T02:50:41.485Z,100.00
2022-10-14T02:53:08.330Z,100.00
2022-10-14T02:55:35.180Z,100.00
2022-10-14T02:58:01.863Z,100.00
2022-10-14T03:00:28.582Z,100.00
2022-10-14T03:02:55.239Z,100.00
2022-10-14T03:05:21.847Z,100.00
2022-10-14T03:07:48.484Z,100.00
2022-10-14T03:10:15.459Z,100.00
2022-10-14T03:12:42.041Z,100.00
2022-10-14T03:15:09.455Z,100.00
2022-10-14T03:17:36.499Z,100.00
2022-10-14T03:20:05.392Z,100.00
2022-10-14T03:22:32.213Z,100.00
2022-10-14T03:24:59.094Z,100.00
2022-10-14T03:27:25.926Z,100.00
2022-10-14T03:29:52.554Z,100.00
2022-10-14T03:32:19.523Z,100.00
2022-10-14T03:34:46.356Z,100.00
2022-10-14T03:37:12.981Z,100.00
2022-10-14T03:39:39.664Z,100.00
2022-10-14T03:42:06.384Z,100.00
2022-10-14T03:44:33.035Z,100.00
2022-10-14T03:46:59.680Z,100.00
2022-10-14T03:49:26.378Z,100.00
2022-10-14T03:51:53.041Z,100.00
2022-10-14T03:54:19.655Z,100.00
2022-10-14T03:56:46.319Z,100.00
2022-10-14T03:59:12.925Z,100.00
2022-10-14T04:01:39.590Z,100.00
2022-10-14T04:04:06.411Z,100.00
2022-10-14T04:06:33.047Z,100.00
2022-10-14T04:08:59.708Z,100.00
2022-10-14T04:11:26.405Z,100.00
2022-10-14T04:13:53.027Z,100.00
2022-10-14T04:16:20.359Z,100.00
2022-10-14T04:18:47.029Z,100.00
2022-10-14T04:21:13.736Z,100.00
2022-10-14T04:23:40.348Z,100.00
2022-10-14T04:26:08.534Z,100.00
2022-10-14T04:28:35.608Z,100.00
2022-10-14T04:31:02.512Z,100.00
2022-10-14T04:33:29.222Z,100.00
2022-10-14T04:36:00.396Z,100.00
2022-10-14T04:38:27.580Z,100.00
2022-10-14T04:40:55.098Z,100.00
2022-10-14T04:43:22.030Z,100.00
2022-10-14T04:45:49.485Z,100.00
2022-10-14T04:48:17.259Z,100.00
2022-10-14T04:50:44.192Z,100.00
2022-10-14T04:53:13.767Z,100.00
2022-10-14T04:55:41.096Z,100.00
2022-10-14T04:58:11.164Z,100.00
2022-10-14T05:00:37.823Z,100.00
2022-10-14T05:03:05.070Z,100.00
2022-10-14T05:05:31.735Z,100.00
2022-10-14T05:07:58.444Z,100.00
2022-10-14T05:10:25.131Z,100.00
2022-10-14T05:12:55.034Z,100.00
2022-10-14T05:15:21.987Z,100.00
2022-10-14T05:17:48.597Z,100.00
2022-10-14T05:20:15.247Z,100.00
2022-10-14T05:22:45.250Z,100.00
2022-10-14T05:25:12.097Z,100.00
2022-10-14T05:27:38.976Z,100.00
2022-10-14T05:30:06.113Z,100.00
2022-10-14T05:32:33.411Z,100.00
2022-10-14T05:35:00.014Z,100.00
2022-10-14T05:37:26.898Z,100.00
2022-10-14T05:39:55.171Z,100.00
2022-10-14T05:42:22.414Z,100.00
2022-10-14T05:44:49.304Z,100.00
2022-10-14T05:47:15.954Z,100.00
2022-10-14T05:49:42.858Z,100.00
2022-10-14T05:52:09.516Z,100.00
2022-10-14T05:54:36.103Z,100.00
2022-10-14T05:57:02.829Z,100.00
2022-10-14T05:59:29.952Z,100.00
2022-10-14T06:01:57.106Z,100.00
2022-10-14T06:04:23.755Z,100.00
2022-10-14T06:06:50.452Z,100.00
2022-10-14T06:09:17.664Z,100.00
2022-10-14T06:11:44.559Z,100.00
2022-10-14T06:14:11.263Z,100.00
2022-10-14T06:16:37.955Z,100.00
2022-10-14T06:19:04.670Z,100.00
2022-10-14T06:21:31.294Z,100.00
2022-10-14T06:23:57.895Z,100.00
2022-10-14T06:26:24.512Z,100.00
2022-10-14T06:28:51.175Z,100.00
2022-10-14T06:31:17.884Z,100.00
2022-10-14T06:33:45.128Z,100.00
2022-10-14T06:36:12.162Z,100.00
2022-10-14T06:38:38.898Z,100.00
2022-10-14T06:41:05.708Z,100.00
2022-10-14T06:43:32.868Z,100.00
2022-10-14T06:45:59.661Z,100.00
2022-10-14T06:48:26.634Z,100.00
2022-10-14T06:50:53.763Z,100.00
2022-10-14T06:53:21.127Z,100.00
2022-10-14T06:55:47.773Z,100.00
2022-10-14T06:58:14.490Z,100.00
2022-10-14T07:00:44.391Z,100.00
2022-10-14T07:03:15.463Z,100.00
2022-10-14T07:05:42.044Z,100.00
2022-10-14T07:08:11.366Z,100.00
2022-10-14T07:10:41.110Z,100.00
2022-10-14T07:13:07.737Z,100.00
2022-10-14T07:15:36.349Z,100.00
2022-10-14T07:18:04.530Z,100.00
2022-10-14T07:20:31.145Z,100.00
2022-10-14T07:22:57.782Z,100.00
2022-10-14T07:25:24.567Z,100.00
2022-10-14T07:27:53.275Z,100.00
2022-10-14T07:30:20.260Z,100.00
2022-10-14T07:32:47.020Z,100.00
2022-10-14T07:35:13.736Z,100.00
2022-10-14T07:37:40.655Z,100.00
2022-10-14T07:40:08.291Z,100.00
2022-10-14T07:42:34.884Z,100.00
2022-10-14T07:45:01.802Z,100.00
2022-10-14T07:47:28.473Z,100.00
2022-10-14T07:49:55.106Z,100.00
2022-10-14T07:52:21.733Z,100.00
2022-10-14T07:54:49.503Z,100.00
2022-10-14T07:57:16.785Z,100.00
2022-10-14T07:59:43.435Z,100.00
2022-10-14T08:02:11.679Z,100.00
2022-10-14T08:04:38.564Z,100.00
2022-10-14T08:07:05.406Z,100.00
2022-10-14T08:09:35.972Z,100.00
2022-10-14T08:12:02.746Z,100.00
2022-10-14T08:14:29.478Z,100.00
2022-10-14T08:16:56.110Z,100.00
2022-10-14T08:19:23.122Z,100.00
2022-10-14T08:21:49.832Z,100.00
2022-10-14T08:24:16.449Z,100.00
2022-10-14T08:26:52.753Z,100.00
2022-10-14T08:29:19.435Z,100.00
2022-10-14T08:31:46.469Z,100.00
2022-10-14T08:34:13.143Z,100.00
2022-10-14T08:36:39.888Z,100.00
2022-10-14T08:39:07.363Z,100.00
2022-10-14T08:41:49.317Z,100.00
2022-10-14T08:44:23.039Z,100.00
2022-10-14T08:47:00.522Z,100.00
2022-10-14T08:49:29.163Z,100.00
2022-10-14T08:52:03.317Z,100.00
2022-10-14T08:54:35.185Z,100.00
2022-10-14T08:57:04.474Z,100.00
2022-10-14T08:59:40.392Z,100.00
2022-10-14T09:02:34.005Z,100.00
2022-10-14T09:05:02.197Z,100.00
2022-10-14T09:07:31.801Z,100.00
2022-10-14T09:10:03.658Z,100.00
2022-10-14T09:12:33.252Z,100.00
2022-10-14T09:15:19.759Z,100.00
2022-10-14T09:17:57.197Z,100.00
2022-10-14T09:20:25.635Z,100.00
2022-10-14T09:23:05.299Z,100.00
2022-10-14T09:25:35.051Z,100.00
2022-10-14T09:28:02.220Z,100.00
2022-10-14T09:30:35.647Z,100.00
2022-10-14T09:33:04.723Z,100.00
2022-10-14T09:35:35.377Z,100.00
2022-10-14T09:38:02.089Z,100.00
2022-10-14T09:40:35.185Z,100.00
2022-10-14T09:43:18.785Z,100.00
2022-10-14T09:46:07.951Z,100.00
2022-10-14T09:48:44.603Z,100.00
2022-10-14T09:51:19.647Z,100.00
2022-10-14T09:53:51.969Z,100.00
2022-10-14T09:56:29.436Z,100.00
2022-10-14T09:58:58.212Z,100.00
2022-10-14T10:01:27.646Z,100.00
2022-10-14T10:03:55.746Z,100.00
2022-10-14T10:06:26.502Z,100.00
2022-10-14T10:08:53.024Z,100.00
2022-10-14T10:11:33.538Z,100.00
2022-10-14T10:14:19.001Z,100.00
2022-10-14T10:16:45.723Z,100.00
2022-10-14T10:19:28.866Z,100.00
2022-10-14T10:22:14.879Z,100.00
2022-10-14T10:24:41.583Z,100.00
2022-10-14T10:27:25.838Z,100.00
2022-10-14T10:29:55.838Z,100.00
2022-10-14T10:32:30.247Z,100.00
2022-10-14T10:35:12.454Z,100.00
2022-10-14T10:38:02.325Z,100.00
2022-10-14T10:40:39.157Z,100.00
2022-10-14T10:43:06.877Z,100.00
2022-10-14T10:45:53.492Z,100.00
2022-10-14T10:48:25.984Z,100.00
2022-10-14T10:51:05.484Z,100.00
2022-10-14T10:53:49.753Z,100.00
2022-10-14T10:56:38.757Z,100.00
2022-10-14T10:59:39.197Z,100.00
2022-10-14T11:02:41.039Z,100.00
2022-10-14T11:05:23.480Z,100.00
2022-10-14T11:08:14.705Z,100.00
2022-10-14T11:11:36.441Z,100.00
2022-10-14T11:14:16.008Z,99.17
2022-10-14T11:17:03.246Z,96.38
2022-10-14T11:19:40.897Z,93.94
2022-10-14T11:22:34.554Z,94.96
2022-10-14T11:25:07.951Z,96.15
2022-10-14T11:27:43.696Z,92.25
2022-10-14T11:30:16.176Z,88.98
2022-10-14T11:32:42.818Z,90.70
2022-10-14T11:35:19.399Z,89.80
2022-10-14T11:38:21.699Z,89.80
2022-10-14T11:41:03.631Z,86.51
2022-10-14T11:43:39.480Z,87.30
2022-10-14T11:46:08.965Z,87.38
2022-10-14T11:48:59.053Z,88.77
2022-10-14T11:51:36.292Z,88.22
2022-10-14T11:54:05.754Z,92.09
2022-10-14T11:56:43.519Z,91.03
2022-10-14T11:59:49.697Z,93.25
2022-10-14T12:02:21.895Z,94.65
2022-10-14T12:04:57.654Z,94.07
2022-10-14T12:07:31.762Z,94.62
2022-10-14T12:10:03.103Z,95.87
2022-10-14T12:12:32.388Z,95.99
2022-10-14T12:15:04.356Z,95.30
2022-10-14T12:17:46.320Z,95.36
2022-10-14T12:20:22.326Z,94.53
2022-10-14T12:22:50.407Z,93.67
2022-10-14T12:25:20.428Z,95.04
2022-10-14T12:27:48.365Z,95.06
2022-10-14T12:30:47.374Z,93.92
2022-10-14T12:33:22.406Z,92.17
2022-10-14T12:36:00.893Z,92.65
2022-10-14T12:38:29.566Z,92.99
2022-10-14T12:41:32.246Z,91.83
2022-10-14T12:44:01.842Z,92.03
2022-10-14T12:46:28.477Z,93.31
2022-10-14T12:48:55.129Z,90.10
2022-10-14T12:51:24.367Z,89.82
2022-10-14T12:54:12.366Z,88.30
2022-10-14T12:56:44.687Z,87.75
2022-10-14T12:59:25.503Z,90.05
2022-10-14T13:02:00.390Z,86.15
2022-10-14T13:04:28.648Z,85.30
2022-10-14T13:07:46.584Z,88.03
2022-10-14T13:10:49.780Z,86.61
2022-10-14T13:13:49.402Z,83.45
2022-10-14T13:16:19.176Z,82.98
2022-10-14T13:18:45.763Z,83.56
2022-10-14T13:21:52.764Z,83.26
2022-10-14T13:24:30.454Z,86.46
2022-10-14T13:27:01.117Z,87.05
2022-10-14T13:30:02.643Z,81.57
2022-10-14T13:32:44.424Z,81.74
2022-10-14T13:35:34.739Z,80.81
2022-10-14T13:38:07.310Z,79.35
2022-10-14T13:40:38.668Z,78.23
2022-10-14T13:43:13.715Z,77.08
2022-10-14T13:45:50.723Z,76.40
2022-10-14T13:48:30.736Z,77.31
2022-10-14T13:51:37.101Z,77.09
2022-10-14T13:54:22.194Z,80.77
2022-10-14T13:57:42.552Z,76.56
2022-10-14T14:02:48.063Z,76.10
2022-10-14T14:05:19.222Z,74.07
2022-10-14T14:10:39.197Z,78.91
2022-10-14T14:13:14.059Z,75.60
2022-10-14T14:15:40.963Z,78.37
2022-10-14T14:18:30.443Z,79.16
2022-10-14T14:21:04.974Z,80.34
2022-10-14T14:23:31.605Z,80.08
2022-10-14T14:26:18.473Z,79.53
2022-10-14T14:28:48.281Z,80.56
2022-10-14T14:31:19.165Z,80.03
2022-10-14T14:33:46.719Z,80.55
2022-10-14T14:36:27.550Z,79.87
2022-10-14T14:38:57.896Z,81.99
2022-10-14T14:41:26.917Z,80.76
2022-10-14T14:44:23.947Z,81.26
2022-10-14T14:46:45.507Z,82.35
2022-10-14T14:49:17.030Z,82.11
2022-10-14T14:51:44.487Z,83.89
2022-10-14T14:54:22.493Z,85.57
2022-10-14T14:57:04.690Z,85.80
2022-10-14T14:59:35.548Z,87.01
2022-10-14T15:02:04.977Z,87.49
2022-10-14T15:04:34.941Z,88.02
2022-10-14T15:07:18.700Z,88.26
2022-10-14T15:09:52.235Z,88.72
2022-10-14T15:12:22.121Z,89.23
2022-10-14T15:14:51.177Z,90.03
2022-10-14T15:17:34.234Z,90.94
2022-10-14T15:20:28.986Z,92.15
2022-10-14T15:22:55.699Z,92.49
2022-10-14T15:25:23.371Z,93.22
2022-10-14T15:27:55.016Z,93.86
2022-10-14T15:30:31.993Z,94.13
2022-10-14T15:33:15.466Z,94.69
2022-10-14T15:35:43.561Z,95.37
2022-10-14T15:38:16.645Z,95.82
2022-10-14T15:40:44.759Z,96.07
2022-10-14T15:43:17.620Z,96.65
2022-10-14T15:45:46.346Z,97.32
2022-10-14T15:48:19.976Z,97.76
2022-10-14T15:50:48.111Z,98.69
2022-10-14T15:53:17.273Z,97.89
2022-10-14T15:55:44.169Z,98.08
2022-10-14T15:58:10.774Z,97.89
2022-10-14T16:00:37.475Z,98.02
2022-10-14T16:03:04.251Z,97.97
2022-10-14T16:05:30.977Z,97.94
2022-10-14T16:07:57.799Z,97.99
2022-10-14T16:10:26.455Z,98.19
2022-10-14T16:12:54.692Z,98.63
2022-10-14T16:15:51.874Z,99.07
2022-10-14T16:18:18.518Z,99.58
2022-10-14T16:20:46.360Z,99.94
2022-10-14T16:23:18.584Z,100.00
2022-10-14T16:25:46.868Z,100.00
2022-10-14T16:28:13.954Z,100.00
2022-10-14T16:30:44.085Z,100.00
2022-10-14T16:35:38.407Z,100.00
2022-10-14T16:38:04.989Z,100.00
2022-10-14T16:40:36.567Z,100.00
2022-10-14T16:43:04.276Z,100.00
2022-10-14T16:45:30.958Z,100.00
2022-10-14T16:47:57.571Z,100.00
2022-10-14T16:50:24.430Z,100.00
2022-10-14T16:53:06.338Z,100.00
2022-10-14T16:55:33.387Z,100.00
2022-10-14T16:58:00.013Z,100.00
2022-10-14T17:00:26.614Z,100.00
2022-10-14T17:02:56.386Z,100.00
2022-10-14T17:05:23.006Z,100.00
2022-10-14T17:07:49.650Z,100.00
2022-10-14T17:10:16.810Z,100.00
2022-10-14T17:12:43.462Z,100.00
2022-10-14T17:15:10.518Z,100.00
2022-10-14T17:17:40.456Z,100.00
2022-10-14T17:20:09.376Z,100.00
2022-10-14T17:22:36.125Z,100.00
2022-10-14T17:25:02.853Z,100.00
2022-10-14T17:27:29.426Z,100.00
2022-10-14T17:29:56.083Z,100.00
2022-10-14T17:32:22.840Z,100.00
2022-10-14T17:34:53.317Z,100.00
2022-10-14T17:37:20.688Z,100.00
2022-10-14T17:39:47.292Z,100.00
2022-10-14T17:42:13.911Z,100.00
2022-10-14T17:44:43.807Z,100.00
2022-10-14T17:47:10.971Z,100.00
2022-10-14T17:49:37.582Z,100.00
2022-10-14T17:52:06.198Z,100.00
2022-10-14T17:54:32.843Z,100.00
2022-10-14T17:56:59.471Z,100.00
2022-10-14T17:59:26.128Z,100.00
2022-10-14T18:02:08.106Z,100.00
2022-10-14T18:04:34.856Z,100.00
2022-10-14T18:07:01.657Z,100.00
2022-10-14T18:09:29.672Z,100.00
2022-10-14T18:12:13.119Z,100.00
2022-10-14T18:14:40.673Z,100.00
2022-10-14T18:17:10.686Z,100.00
2022-10-14T18:19:37.414Z,100.00
2022-10-14T18:22:04.234Z,100.00
2022-10-14T18:24:30.890Z,100.00
2022-10-14T18:26:57.459Z,100.00
2022-10-14T18:29:24.713Z,100.00
2022-10-14T18:34:19.074Z,100.00
2022-10-14T18:36:47.818Z,100.00
2022-10-14T18:39:15.461Z,100.00
2022-10-14T18:41:43.898Z,100.00
2022-10-14T18:44:10.613Z,100.00
2022-10-14T18:46:39.382Z,100.00
2022-10-14T18:49:08.712Z,100.00
2022-10-14T18:51:37.946Z,100.00
2022-10-14T18:54:07.805Z,100.00
2022-10-14T18:56:38.718Z,100.00
2022-10-14T18:59:09.127Z,100.00
2022-10-14T19:01:37.850Z,100.00
2022-10-14T19:04:06.661Z,100.00
2022-10-14T19:06:34.763Z,100.00
2022-10-14T19:09:02.000Z,100.00
2022-10-14T19:11:29.611Z,100.00
2022-10-14T19:13:58.274Z,100.00
2022-10-14T19:16:33.639Z,100.00
2022-10-14T19:19:04.588Z,100.00
2022-10-14T19:21:31.767Z,100.00
2022-10-14T19:23:59.043Z,100.00
2022-10-14T19:26:30.962Z,100.00
2022-10-14T19:29:01.543Z,100.00
2022-10-14T19:31:30.927Z,100.00
2022-10-14T19:33:59.792Z,100.00
2022-10-14T19:36:26.467Z,100.00
2022-10-14T19:38:57.981Z,100.00
2022-10-14T19:41:28.186Z,100.00
2022-10-14T19:43:56.955Z,100.00
2022-10-14T19:46:27.603Z,100.00
2022-10-14T19:48:57.468Z,100.00
2022-10-14T19:51:25.171Z,100.00
2022-10-14T19:53:53.832Z,100.00
2022-10-14T19:56:20.769Z,100.00
2022-10-14T19:58:51.919Z,100.00
2022-10-14T20:01:19.993Z,100.00
2022-10-14T20:03:47.141Z,100.00
2022-10-14T20:06:14.044Z,100.00
2022-10-14T20:08:41.211Z,100.00
2022-10-14T20:11:10.090Z,100.00
2022-10-14T20:13:37.703Z,100.00
2022-10-14T20:16:06.582Z,100.00
2022-10-14T20:18:33.462Z,100.00
2022-10-14T20:21:02.704Z,100.00
2022-10-14T20:23:32.433Z,100.00
2022-10-14T20:26:00.566Z,100.00
2022-10-14T20:28:27.163Z,100.00
2022-10-14T20:30:54.328Z,100.00
2022-10-14T20:33:21.054Z,100.00
2022-10-14T20:35:47.680Z,100.00
2022-10-14T20:38:14.373Z,100.00
2022-10-14T20:40:41.003Z,100.00
2022-10-14T20:43:07.580Z,100.00
2022-10-14T20:45:34.292Z,100.00
2022-10-14T20:48:01.099Z,100.00
2022-10-14T20:50:27.714Z,100.00
2022-10-14T20:52:54.290Z,100.00
2022-10-14T20:55:20.907Z,100.00
2022-10-14T20:57:49.903Z,100.00
2022-10-14T21:00:16.738Z,100.00
2022-10-14T21:05:19.240Z,100.00
2022-10-14T21:07:45.922Z,100.00
2022-10-14T21:10:12.546Z,100.00
2022-10-14T21:12:39.187Z,100.00
2022-10-14T21:15:06.251Z,100.00
2022-10-14T21:17:32.866Z,100.00
2022-10-14T21:20:02.686Z,100.00
2022-10-14T21:22:29.428Z,100.00
2022-10-14T21:24:56.054Z,100.00
2022-10-14T21:27:22.903Z,100.00
2022-10-14T21:29:49.925Z,100.00
2022-10-14T21:32:16.629Z,100.00
2022-10-14T21:34:43.253Z,100.00
2022-10-14T21:37:09.945Z,100.00
2022-10-14T21:39:36.528Z,100.00
2022-10-14T21:42:03.208Z,100.00
2022-10-14T21:44:29.863Z,100.00
2022-10-14T21:46:56.444Z,100.00
2022-10-14T21:49:23.217Z,100.00
2022-10-14T21:51:49.840Z,100.00
2022-10-14T21:54:16.453Z,100.00
2022-10-14T21:56:43.405Z,100.00
2022-10-14T21:59:11.568Z,100.00
2022-10-14T22:01:38.353Z,100.00
2022-10-14T22:04:06.385Z,100.00
2022-10-14T22:06:34.827Z,100.00
2022-10-14T22:09:03.728Z,100.00
2022-10-14T22:11:34.471Z,100.00
2022-10-14T22:14:03.374Z,100.00
2022-10-14T22:16:30.631Z,100.00
2022-10-14T22:19:00.275Z,100.00
2022-10-14T22:21:28.992Z,100.00
2022-10-14T22:23:55.981Z,100.00
2022-10-14T22:26:24.512Z,100.00
2022-10-14T22:29:02.250Z,100.00
2022-10-14T22:31:30.428Z,100.00
2022-10-14T22:33:58.297Z,100.00
2022-10-14T22:36:28.908Z,100.00
2022-10-14T22:38:56.803Z,100.00
2022-10-14T22:41:25.435Z,100.00
2022-10-14T22:43:54.655Z,100.00
2022-10-14T22:46:23.888Z,100.00
2022-10-14T22:48:56.250Z,100.00
2022-10-14T22:51:31.974Z,100.00
2022-10-14T22:53:59.021Z,100.00
2022-10-14T22:56:28.467Z,100.00
2022-10-14T22:58:56.973Z,100.00
2022-10-14T23:01:24.201Z,100.00
2022-10-14T23:03:50.828Z,100.00
2022-10-14T23:06:17.614Z,100.00
2022-10-14T23:08:44.412Z,100.00
2022-10-14T23:11:15.695Z,100.00
2022-10-14T23:13:42.821Z,100.00
2022-10-14T23:16:14.799Z,100.00
2022-10-14T23:21:18.256Z,100.00
2022-10-14T23:23:46.296Z,100.00
2022-10-14T23:26:15.068Z,100.00
2022-10-14T23:28:42.358Z,100.00
2022-10-14T23:31:11.351Z,100.00
2022-10-14T23:33:39.146Z,100.00
2022-10-14T23:36:07.372Z,100.00
2022-10-14T23:38:35.210Z,100.00
2022-10-14T23:41:03.292Z,100.00
2022-10-14T23:43:30.368Z,100.00
2022-10-14T23:45:57.107Z,100.00
2022-10-14T23:48:23.747Z,100.00
2022-10-14T23:50:50.784Z,100.00
2022-10-14T23:53:17.819Z,100.00
2022-10-14T23:55:44.973Z,100.00
2022-10-14T23:58:12.687Z,100.00
